sensor_id;sensor_type;location;lat;lon;timestamp;temperature;humidity
35244;DHT22;37916;52.160;21.066;2022-12-29T00:07:53;6.40;79.00
35244;DHT22;37916;52.160;21.066;2022-12-29T00:17:54;6.40;79.90
35244;DHT22;37916;52.160;21.066;2022-12-29T00:27:55;6.40;78.90
35244;DHT22;37916;52.160;21.066;2022-12-29T00:38:14;6.40;78.60
35244;DHT22;37916;52.160;21.066;2022-12-29T00:48:33;6.40;79.70
35244;DHT22;37916;52.160;21.066;2022-12-29T00:58:52;6.40;79.10
35244;DHT22;37916;52.160;21.066;2022-12-29T01:08:53;6.40;78.60
35244;DHT22;37916;52.160;21.066;2022-12-29T01:19:12;6.30;79.40
35244;DHT22;37916;52.160;21.066;2022-12-29T01:29:13;6.40;78.40
35244;DHT22;37916;52.160;21.066;2022-12-29T01:39:14;6.30;78.70
35244;DHT22;37916;52.160;21.066;2022-12-29T01:49:20;6.30;77.70
35244;DHT22;37916;52.160;21.066;2022-12-29T01:59:32;6.40;78.00
35244;DHT22;37916;52.160;21.066;2022-12-29T02:09:35;6.40;79.60
35244;DHT22;37916;52.160;21.066;2022-12-29T02:50:25;6.20;79.20
35244;DHT22;37916;52.160;21.066;2022-12-29T03:00:27;6.10;80.10
35244;DHT22;37916;52.160;21.066;2022-12-29T03:20:52;5.90;84.60
35244;DHT22;37916;52.160;21.066;2022-12-29T03:30:55;5.70;85.50
35244;DHT22;37916;52.160;21.066;2022-12-29T03:40:59;5.70;86.80
35244;DHT22;37916;52.160;21.066;2022-12-29T03:51:01;5.60;86.90
35244;DHT22;37916;52.160;21.066;2022-12-29T04:01:02;5.40;85.80
35244;DHT22;37916;52.160;21.066;2022-12-29T04:11:02;5.40;87.50
35244;DHT22;37916;52.160;21.066;2022-12-29T04:21:03;5.20;87.00
35244;DHT22;37916;52.160;21.066;2022-12-29T04:31:05;5.10;87.10
35244;DHT22;37916;52.160;21.066;2022-12-29T04:41:06;5.10;86.80
35244;DHT22;37916;52.160;21.066;2022-12-29T04:51:06;5.00;87.00
35244;DHT22;37916;52.160;21.066;2022-12-29T05:01:08;4.90;86.00
35244;DHT22;37916;52.160;21.066;2022-12-29T05:11:08;4.90;85.70
35244;DHT22;37916;52.160;21.066;2022-12-29T05:21:09;4.90;85.30
35244;DHT22;37916;52.160;21.066;2022-12-29T05:31:10;4.80;85.20
35244;DHT22;37916;52.160;21.066;2022-12-29T05:41:10;4.80;84.80
35244;DHT22;37916;52.160;21.066;2022-12-29T05:51:11;4.90;84.20
35244;DHT22;37916;52.160;21.066;2022-12-29T06:01:12;4.90;83.90
35244;DHT22;37916;52.160;21.066;2022-12-29T06:11:13;4.80;83.20
35244;DHT22;37916;52.160;21.066;2022-12-29T06:21:13;4.90;82.60
35244;DHT22;37916;52.160;21.066;2022-12-29T06:31:14;5.10;81.80
35244;DHT22;37916;52.160;21.066;2022-12-29T06:41:15;5.20;81.30
35244;DHT22;37916;52.160;21.066;2022-12-29T06:51:15;5.30;82.10
35244;DHT22;37916;52.160;21.066;2022-12-29T07:01:16;5.30;81.60
35244;DHT22;37916;52.160;21.066;2022-12-29T07:11:17;5.40;81.50
35244;DHT22;37916;52.160;21.066;2022-12-29T07:21:18;5.50;80.90
35244;DHT22;37916;52.160;21.066;2022-12-29T07:31:20;5.60;80.00
35244;DHT22;37916;52.160;21.066;2022-12-29T07:41:21;5.80;80.30
35244;DHT22;37916;52.160;21.066;2022-12-29T07:51:22;5.90;79.70
35244;DHT22;37916;52.160;21.066;2022-12-29T08:01:23;6.00;79.70
35244;DHT22;37916;52.160;21.066;2022-12-29T08:11:23;6.10;78.30
35244;DHT22;37916;52.160;21.066;2022-12-29T08:21:25;6.30;76.80
35244;DHT22;37916;52.160;21.066;2022-12-29T08:31:27;6.60;77.60
35244;DHT22;37916;52.160;21.066;2022-12-29T08:41:28;6.90;75.10
35244;DHT22;37916;52.160;21.066;2022-12-29T08:51:28;7.10;74.50
35244;DHT22;37916;52.160;21.066;2022-12-29T09:01:29;7.20;75.40
35244;DHT22;37916;52.160;21.066;2022-12-29T09:11:30;7.60;72.50
35244;DHT22;37916;52.160;21.066;2022-12-29T09:21:32;7.60;72.50
35244;DHT22;37916;52.160;21.066;2022-12-29T09:31:32;7.60;73.10
35244;DHT22;37916;52.160;21.066;2022-12-29T09:41:43;7.80;72.70
35244;DHT22;37916;52.160;21.066;2022-12-29T09:51:51;7.80;73.50
35244;DHT22;37916;52.160;21.066;2022-12-29T10:01:59;8.10;72.70
35244;DHT22;37916;52.160;21.066;2022-12-29T10:32:54;8.10;73.30
35244;DHT22;37916;52.160;21.066;2022-12-29T10:42:56;8.10;71.60
35244;DHT22;37916;52.160;21.066;2022-12-29T10:53:00;8.30;71.30
35244;DHT22;37916;52.160;21.066;2022-12-29T11:13:50;8.70;73.40
35244;DHT22;37916;52.160;21.066;2022-12-29T11:24:04;8.70;69.70
35244;DHT22;37916;52.160;21.066;2022-12-29T11:34:07;8.80;72.70
35244;DHT22;37916;52.160;21.066;2022-12-29T11:44:12;8.80;70.70
35244;DHT22;37916;52.160;21.066;2022-12-29T11:54:28;8.70;70.80
35244;DHT22;37916;52.160;21.066;2022-12-29T12:04:35;8.70;74.20
35244;DHT22;37916;52.160;21.066;2022-12-29T12:14:53;8.70;72.20
35244;DHT22;37916;52.160;21.066;2022-12-29T12:35:16;8.90;71.70
35244;DHT22;37916;52.160;21.066;2022-12-29T12:45:45;8.90;75.30
35244;DHT22;37916;52.160;21.066;2022-12-29T12:56:00;9.00;72.20
35244;DHT22;37916;52.160;21.066;2022-12-29T13:06:57;9.00;72.50
35244;DHT22;37916;52.160;21.066;2022-12-29T13:27:40;9.00;71.70
35244;DHT22;37916;52.160;21.066;2022-12-29T13:37:53;9.00;76.00
35244;DHT22;37916;52.160;21.066;2022-12-29T13:47:56;9.00;72.90
35244;DHT22;37916;52.160;21.066;2022-12-29T14:08:33;8.90;73.30
35244;DHT22;37916;52.160;21.066;2022-12-29T14:18:42;9.00;73.70
35244;DHT22;37916;52.160;21.066;2022-12-29T14:28:46;9.00;74.20
35244;DHT22;37916;52.160;21.066;2022-12-29T14:38:48;9.00;73.70
35244;DHT22;37916;52.160;21.066;2022-12-29T14:48:55;9.00;71.40
35244;DHT22;37916;52.160;21.066;2022-12-29T14:59:02;8.90;74.80
35244;DHT22;37916;52.160;21.066;2022-12-29T15:09:15;8.90;73.10
35244;DHT22;37916;52.160;21.066;2022-12-29T15:19:25;8.80;72.60
35244;DHT22;37916;52.160;21.066;2022-12-29T15:29:40;8.80;73.10
35244;DHT22;37916;52.160;21.066;2022-12-29T15:39:41;8.60;76.00
35244;DHT22;37916;52.160;21.066;2022-12-29T15:49:43;8.40;75.10
35244;DHT22;37916;52.160;21.066;2022-12-29T15:59:49;8.30;74.20
35244;DHT22;37916;52.160;21.066;2022-12-29T16:09:55;8.10;75.90
35244;DHT22;37916;52.160;21.066;2022-12-29T16:20:22;7.90;77.60
35244;DHT22;37916;52.160;21.066;2022-12-29T16:30:31;7.90;76.40
35244;DHT22;37916;52.160;21.066;2022-12-29T16:40:32;7.80;76.30
35244;DHT22;37916;52.160;21.066;2022-12-29T16:50:38;7.80;76.40
35244;DHT22;37916;52.160;21.066;2022-12-29T17:00:39;7.70;78.50
35244;DHT22;37916;52.160;21.066;2022-12-29T17:10:42;7.90;76.30
35244;DHT22;37916;52.160;21.066;2022-12-29T17:21:02;8.00;76.10
35244;DHT22;37916;52.160;21.066;2022-12-29T17:31:05;8.10;75.60
35244;DHT22;37916;52.160;21.066;2022-12-29T17:41:13;8.30;76.60
35244;DHT22;37916;52.160;21.066;2022-12-29T17:51:14;8.40;76.60
35244;DHT22;37916;52.160;21.066;2022-12-29T18:01:16;8.50;75.20
35244;DHT22;37916;52.160;21.066;2022-12-29T18:11:24;8.50;76.20
35244;DHT22;37916;52.160;21.066;2022-12-29T18:21:26;8.40;76.10
35244;DHT22;37916;52.160;21.066;2022-12-29T18:31:29;8.40;76.30
35244;DHT22;37916;52.160;21.066;2022-12-29T18:41:30;8.30;74.90
35244;DHT22;37916;52.160;21.066;2022-12-29T18:51:38;8.20;75.60
35244;DHT22;37916;52.160;21.066;2022-12-29T19:01:38;8.10;77.10
35244;DHT22;37916;52.160;21.066;2022-12-29T19:11:39;8.10;77.10
35244;DHT22;37916;52.160;21.066;2022-12-29T19:21:43;8.20;76.40
35244;DHT22;37916;52.160;21.066;2022-12-29T19:31:49;8.20;76.80
35244;DHT22;37916;52.160;21.066;2022-12-29T19:41:52;8.30;77.40
35244;DHT22;37916;52.160;21.066;2022-12-29T19:51:54;8.20;77.50
35244;DHT22;37916;52.160;21.066;2022-12-29T20:01:58;8.20;77.60
35244;DHT22;37916;52.160;21.066;2022-12-29T20:11:59;8.30;75.90
35244;DHT22;37916;52.160;21.066;2022-12-29T20:22:10;8.40;76.50
35244;DHT22;37916;52.160;21.066;2022-12-29T20:32:17;8.40;77.70
35244;DHT22;37916;52.160;21.066;2022-12-29T20:42:21;8.40;77.50
35244;DHT22;37916;52.160;21.066;2022-12-29T20:52:27;8.40;75.70
35244;DHT22;37916;52.160;21.066;2022-12-29T21:02:28;8.20;77.20
35244;DHT22;37916;52.160;21.066;2022-12-29T21:12:28;8.10;77.60
35244;DHT22;37916;52.160;21.066;2022-12-29T21:22:29;8.20;77.20
35244;DHT22;37916;52.160;21.066;2022-12-29T21:32:30;8.00;77.60
35244;DHT22;37916;52.160;21.066;2022-12-29T21:42:30;8.10;78.50
35244;DHT22;37916;52.160;21.066;2022-12-29T21:52:32;8.30;77.70
35244;DHT22;37916;52.160;21.066;2022-12-29T22:02:33;8.40;77.80
35244;DHT22;37916;52.160;21.066;2022-12-29T22:12:52;8.50;77.70
35244;DHT22;37916;52.160;21.066;2022-12-29T22:23:19;8.60;76.50
35244;DHT22;37916;52.160;21.066;2022-12-29T22:33:19;8.50;77.40
35244;DHT22;37916;52.160;21.066;2022-12-29T22:43:20;8.30;76.20
35244;DHT22;37916;52.160;21.066;2022-12-29T22:53:21;8.40;76.70
35244;DHT22;37916;52.160;21.066;2022-12-29T23:03:27;8.30;76.60
35244;DHT22;37916;52.160;21.066;2022-12-29T23:13:30;7.90;77.70
35244;DHT22;37916;52.160;21.066;2022-12-29T23:23:31;7.60;78.20
35244;DHT22;37916;52.160;21.066;2022-12-29T23:33:50;7.80;78.30
35244;DHT22;37916;52.160;21.066;2022-12-29T23:43:51;7.90;77.60
35244;DHT22;37916;52.160;21.066;2022-12-29T23:53:55;7.90;78.40
